Meaford, Canada
Current Conditions -  °F | °C
As of 10:00 PM on Sunday 21 Dec 2014 (Local Time) from CYVV Reporting Station
Broken Clouds Broken Clouds  
Wind Chill: 22°   Ceiling: 3100
Heat Index: 28°   Visibility: 15mi
Dew Point: 21°   Wind: 6mph
Humidity: 74%   Direction: 150°SSE
Pressure: 30.24"   Gusts: NA
Location:  44.61°N, 80.59°W
Report Text: CYVV 220300Z 15005KT 15SM BKN031 M02/M06 A3024 RMK SC7 SLP250
Loading
Personal Weather Stations






























Interactive Weather Map New forecast layout! Learn more

10-Day Weather Forecast

Advertisements
Track Severe Weather on mobile